createdAt,value
2019-05-02T00:01:07.219Z,5.27
2019-05-02T00:03:41.093Z,5.20
2019-05-02T00:06:09.248Z,5.07
2019-05-02T00:08:38.315Z,5.00
2019-05-02T00:11:08.851Z,5.33
2019-05-02T00:13:37.561Z,4.80
2019-05-02T00:16:09.082Z,4.83
2019-05-02T00:18:39.017Z,4.70
2019-05-02T00:21:09.357Z,4.50
2019-05-02T00:23:37.978Z,4.87
2019-05-02T00:26:06.880Z,4.73
2019-05-02T00:28:38.099Z,4.80
2019-05-02T00:31:11.466Z,5.00
2019-05-02T00:33:38.371Z,4.80
2019-05-02T00:36:07.411Z,4.57
2019-05-02T00:38:38.570Z,18.30
2019-05-02T00:41:08.883Z,12.50
2019-05-02T00:43:37.824Z,10.77
2019-05-02T00:46:07.613Z,5.60
2019-05-02T00:48:44.815Z,8.77
2019-05-02T00:51:13.764Z,6.17
2019-05-02T00:53:44.412Z,11.97
2019-05-02T00:56:13.303Z,6.10
2019-05-02T00:58:42.143Z,8.03
2019-05-02T01:01:12.588Z,5.57
2019-05-02T01:03:47.140Z,6.30
2019-05-02T01:06:14.473Z,7.00
2019-05-02T01:08:43.521Z,6.30
2019-05-02T01:11:12.699Z,6.47
2019-05-02T01:13:41.712Z,8.33
2019-05-02T01:16:15.256Z,7.20
2019-05-02T01:18:42.578Z,7.90
2019-05-02T01:21:11.712Z,7.00
2019-05-02T01:23:41.303Z,7.00
2019-05-02T01:26:11.106Z,8.00
2019-05-02T01:28:49.295Z,7.97
2019-05-02T01:31:32.524Z,7.73
2019-05-02T01:34:18.084Z,7.77
2019-05-02T01:36:47.252Z,7.73
2019-05-02T01:39:15.956Z,7.70
2019-05-02T01:41:45.418Z,8.03
2019-05-02T01:44:14.057Z,8.40
2019-05-02T01:46:43.370Z,9.23
2019-05-02T01:49:12.284Z,7.87
2019-05-02T01:51:41.850Z,9.63
2019-05-02T01:54:11.740Z,8.03
2019-05-02T01:56:40.382Z,8.80
2019-05-02T01:59:10.065Z,8.87
2019-05-02T02:01:38.739Z,9.23
2019-05-02T02:04:07.662Z,8.80
2019-05-02T02:06:38.895Z,9.23
2019-05-02T02:09:09.706Z,9.63
2019-05-02T02:11:40.233Z,9.50
2019-05-02T02:14:12.843Z,9.60
2019-05-02T02:16:42.002Z,10.60
2019-05-02T02:19:15.240Z,10.90
2019-05-02T02:21:48.941Z,11.53
2019-05-02T02:24:25.100Z,9.43
2019-05-02T02:26:53.183Z,10.07
2019-05-02T02:29:22.147Z,10.13
2019-05-02T02:31:51.062Z,10.83
2019-05-02T02:34:28.689Z,10.23
2019-05-02T02:36:51.663Z,10.43
2019-05-02T02:39:21.737Z,10.73
2019-05-02T02:41:54.195Z,9.73
2019-05-02T02:44:33.776Z,10.40
2019-05-02T02:47:03.945Z,10.33
2019-05-02T02:49:33.255Z,10.70
2019-05-02T02:52:04.707Z,10.63
2019-05-02T02:54:36.514Z,10.97
2019-05-02T02:57:05.131Z,11.47
2019-05-02T02:59:34.113Z,11.17
2019-05-02T03:02:09.740Z,11.30
2019-05-02T03:04:34.404Z,11.20
2019-05-02T03:07:03.400Z,11.33
2019-05-02T03:09:33.684Z,11.57
2019-05-02T03:12:22.838Z,12.00
2019-05-02T03:14:56.465Z,11.80
2019-05-02T03:17:28.842Z,12.17
2019-05-02T03:20:00.958Z,11.90
2019-05-02T03:22:28.555Z,12.60
2019-05-02T03:24:59.263Z,13.37
2019-05-02T03:27:29.981Z,12.40
2019-05-02T03:29:59.418Z,12.50
2019-05-02T03:32:34.254Z,12.93
2019-05-02T03:34:59.815Z,11.73
2019-05-02T03:37:28.806Z,12.07
2019-05-02T03:40:00.362Z,12.73
2019-05-02T03:42:27.982Z,12.07
2019-05-02T03:45:04.084Z,12.13
2019-05-02T03:47:27.918Z,12.73
2019-05-02T03:49:57.163Z,12.47
2019-05-02T03:52:25.790Z,11.90
2019-05-02T03:54:54.622Z,12.30
2019-05-02T03:57:32.170Z,12.97
2019-05-02T03:59:55.035Z,12.67
2019-05-02T04:02:24.274Z,11.67
2019-05-02T04:04:59.884Z,11.70
2019-05-02T04:07:24.526Z,11.37
2019-05-02T04:09:54.000Z,11.30
2019-05-02T04:12:22.637Z,10.83
2019-05-02T04:14:55.525Z,10.80
2019-05-02T04:17:28.636Z,11.30
2019-05-02T04:19:54.044Z,11.47
2019-05-02T04:22:23.361Z,10.67
2019-05-02T04:24:56.805Z,11.30
2019-05-02T04:27:27.696Z,10.77
2019-05-02T04:29:53.495Z,11.37
2019-05-02T04:32:23.238Z,11.40
2019-05-02T04:34:55.630Z,10.73
2019-05-02T04:37:24.586Z,10.43
2019-05-02T04:39:57.877Z,10.37
2019-05-02T04:42:24.758Z,10.87
2019-05-02T04:45:16.244Z,10.70
2019-05-02T04:47:24.310Z,10.50
2019-05-02T04:49:54.752Z,10.60
2019-05-02T04:52:24.884Z,10.93
2019-05-02T04:55:08.305Z,10.37
2019-05-02T04:57:36.769Z,10.93
2019-05-02T05:00:06.454Z,11.10
2019-05-02T05:02:35.903Z,10.87
2019-05-02T05:05:00.535Z,10.70
2019-05-02T05:07:39.913Z,11.73
2019-05-02T05:10:03.354Z,10.97
2019-05-02T05:12:37.995Z,10.67
2019-05-02T05:15:04.613Z,10.57
2019-05-02T05:17:34.290Z,10.53
2019-05-02T05:20:13.708Z,11.13
2019-05-02T05:22:44.328Z,10.63
2019-05-02T05:25:17.802Z,10.40
2019-05-02T05:27:45.111Z,10.10
2019-05-02T05:30:15.611Z,11.13
2019-05-02T05:32:47.793Z,10.50
2019-05-02T05:35:18.554Z,10.60
2019-05-02T05:37:52.788Z,11.07
2019-05-02T05:40:22.572Z,10.23
2019-05-02T05:42:52.829Z,10.77
2019-05-02T05:45:21.480Z,10.77
2019-05-02T05:47:52.481Z,10.47
2019-05-02T05:50:24.226Z,10.57
2019-05-02T05:52:59.285Z,11.10
2019-05-02T05:55:28.162Z,9.63
2019-05-02T05:58:01.382Z,9.80
2019-05-02T06:00:28.881Z,10.20
2019-05-02T06:03:10.318Z,10.50
2019-05-02T06:05:40.451Z,10.23
2019-05-02T06:08:03.684Z,10.73
2019-05-02T06:10:39.051Z,9.30
2019-05-02T06:13:11.020Z,10.20
2019-05-02T06:15:39.135Z,9.87
2019-05-02T06:18:09.913Z,9.60
2019-05-02T06:20:39.538Z,10.00
2019-05-02T06:23:08.410Z,10.37
2019-05-02T06:25:38.078Z,9.60
2019-05-02T06:28:08.128Z,9.43
2019-05-02T06:30:36.823Z,9.93
2019-05-02T06:33:05.758Z,9.17
2019-05-02T06:35:36.404Z,8.90
2019-05-02T06:38:05.170Z,9.10
2019-05-02T06:40:34.236Z,9.70
2019-05-02T06:43:04.160Z,8.60
2019-05-02T06:45:37.597Z,9.30
2019-05-02T06:48:04.798Z,8.87
2019-05-02T06:50:38.669Z,8.13
2019-05-02T06:53:09.634Z,8.60
2019-05-02T06:55:38.537Z,8.33
2019-05-02T06:58:08.152Z,8.80
2019-05-02T07:00:56.078Z,9.53
2019-05-02T07:03:11.493Z,8.53
2019-05-02T07:05:40.966Z,8.37
2019-05-02T07:08:12.115Z,8.83
2019-05-02T07:10:44.849Z,8.97
2019-05-02T07:13:14.979Z,8.60
2019-05-02T07:15:48.222Z,8.63
2019-05-02T07:18:27.152Z,8.37
2019-05-02T07:20:56.491Z,9.13
2019-05-02T07:23:25.215Z,8.37
2019-05-02T07:25:53.876Z,7.83
2019-05-02T07:28:24.124Z,8.57
2019-05-02T07:30:54.821Z,9.60
2019-05-02T07:33:23.600Z,7.97
2019-05-02T07:35:55.202Z,7.53
2019-05-02T07:38:25.777Z,7.43
2019-05-02T07:40:54.339Z,7.30
2019-05-02T07:43:23.174Z,7.60
2019-05-02T07:45:53.242Z,7.10
2019-05-02T07:48:22.913Z,7.30
2019-05-02T07:50:52.415Z,8.47
2019-05-02T07:53:21.665Z,6.67
2019-05-02T07:55:51.200Z,6.57
2019-05-02T07:58:20.111Z,7.13
2019-05-02T08:00:48.680Z,6.63
2019-05-02T08:03:18.147Z,6.33
2019-05-02T08:05:47.727Z,6.93
2019-05-02T08:08:18.780Z,6.57
2019-05-02T08:10:47.842Z,7.10
2019-05-02T08:13:17.566Z,6.43
2019-05-02T08:15:50.752Z,6.00
2019-05-02T08:18:17.187Z,5.87
2019-05-02T08:20:46.217Z,6.40
2019-05-02T08:23:15.351Z,6.07
2019-05-02T08:25:45.450Z,10.03
2019-05-02T08:28:18.007Z,6.00
2019-05-02T08:30:48.607Z,6.07
2019-05-02T08:33:18.303Z,6.20
2019-05-02T08:35:47.320Z,5.93
2019-05-02T08:38:17.887Z,6.03
2019-05-02T08:40:49.624Z,5.47
2019-05-02T08:43:18.950Z,5.80
2019-05-02T08:45:47.894Z,5.70
2019-05-02T08:48:17.382Z,5.50
2019-05-02T08:50:48.066Z,5.83
2019-05-02T08:53:19.723Z,6.30
2019-05-02T08:55:47.387Z,5.60
2019-05-02T08:58:16.427Z,6.10
2019-05-02T09:00:47.363Z,7.23
2019-05-02T09:03:17.176Z,6.10
2019-05-02T09:05:47.479Z,5.53
2019-05-02T09:08:17.253Z,5.67
2019-05-02T09:10:47.592Z,6.93
2019-05-02T09:13:25.959Z,6.30
2019-05-02T09:15:51.195Z,5.53
2019-05-02T09:18:22.262Z,5.53
2019-05-02T09:20:56.199Z,5.17
2019-05-02T09:23:22.876Z,5.67
2019-05-02T09:25:52.883Z,6.13
2019-05-02T09:28:25.409Z,6.47
2019-05-02T09:30:57.415Z,7.23
2019-05-02T09:33:23.709Z,8.93
2019-05-02T09:35:52.393Z,6.73
2019-05-02T09:38:22.217Z,6.27
2019-05-02T09:40:54.498Z,7.40
2019-05-02T09:43:22.864Z,7.33
2019-05-02T09:45:52.132Z,5.53
2019-05-02T09:48:22.870Z,7.50
2019-05-02T09:50:52.804Z,6.60
2019-05-02T09:53:25.516Z,6.07
2019-05-02T09:55:57.157Z,5.90
2019-05-02T09:58:23.999Z,5.70
2019-05-02T10:00:57.318Z,6.50
2019-05-02T10:03:26.019Z,6.10
2019-05-02T10:05:54.734Z,6.37
2019-05-02T10:08:23.554Z,6.13
2019-05-02T10:10:52.713Z,7.30
2019-05-02T10:13:22.842Z,6.37
2019-05-02T10:15:52.758Z,7.33
2019-05-02T10:18:28.619Z,8.30
2019-05-02T10:20:52.529Z,7.60
2019-05-02T10:23:23.341Z,8.30
2019-05-02T10:25:52.172Z,7.40
2019-05-02T10:28:22.869Z,7.23
2019-05-02T10:30:56.481Z,7.10
2019-05-02T10:33:27.927Z,6.40
2019-05-02T10:35:55.429Z,11.37
2019-05-02T10:38:24.076Z,12.27
2019-05-02T10:40:54.775Z,7.23
2019-05-02T10:43:23.125Z,6.90
2019-05-02T10:45:56.418Z,8.23
2019-05-02T10:48:28.182Z,7.67
2019-05-02T10:50:55.809Z,6.33
2019-05-02T10:53:24.492Z,6.17
2019-05-02T10:55:53.145Z,5.47
2019-05-02T10:58:26.177Z,6.43
2019-05-02T11:00:52.446Z,6.13
2019-05-02T11:03:22.881Z,4.87
2019-05-02T11:06:05.520Z,5.80
2019-05-02T11:08:36.905Z,5.30
2019-05-02T11:11:05.971Z,5.77
2019-05-02T11:13:43.978Z,6.13
2019-05-02T11:16:17.085Z,6.30
2019-05-02T11:18:56.599Z,5.83
2019-05-02T11:21:25.366Z,7.40
2019-05-02T11:23:54.061Z,6.93
2019-05-02T11:26:25.054Z,6.73
2019-05-02T11:28:53.236Z,7.33
2019-05-02T11:31:22.002Z,6.47
2019-05-02T11:33:52.715Z,6.77
2019-05-02T11:36:22.317Z,6.50
2019-05-02T11:39:00.433Z,6.33
2019-05-02T11:41:22.463Z,6.87
2019-05-02T11:43:54.062Z,6.70
2019-05-02T11:46:22.092Z,6.17
2019-05-02T11:48:56.283Z,6.00
2019-05-02T11:51:22.727Z,6.13
2019-05-02T11:53:52.741Z,6.23
2019-05-02T11:56:22.205Z,6.83
2019-05-02T11:58:52.854Z,6.40
2019-05-02T12:01:35.004Z,5.70
2019-05-02T12:03:56.926Z,6.40
2019-05-02T12:06:25.569Z,6.57
2019-05-02T12:08:54.213Z,6.83
2019-05-02T12:11:23.174Z,6.17
2019-05-02T12:13:56.806Z,6.13
2019-05-02T12:16:23.013Z,6.80
2019-05-02T12:18:53.765Z,6.40
2019-05-02T12:21:22.934Z,6.57
2019-05-02T12:23:52.759Z,6.03
2019-05-02T12:26:22.184Z,6.80
2019-05-02T12:28:52.630Z,8.30
2019-05-02T12:31:26.759Z,6.00
2019-05-02T12:33:56.354Z,7.67
2019-05-02T12:36:25.024Z,6.27
2019-05-02T12:38:53.764Z,5.73
2019-05-02T12:41:25.099Z,5.77
2019-05-02T12:43:52.769Z,5.47
2019-05-02T12:46:22.194Z,5.37
2019-05-02T12:48:51.912Z,5.67
2019-05-02T12:51:22.590Z,5.60
2019-05-02T12:53:52.786Z,12.07
2019-05-02T12:56:22.862Z,7.73
2019-05-02T12:58:52.916Z,6.40
2019-05-02T13:01:22.145Z,8.57
2019-05-02T13:04:04.763Z,6.87
2019-05-02T13:06:33.377Z,5.60
2019-05-02T13:09:03.109Z,5.30
2019-05-02T13:11:42.234Z,6.37
2019-05-02T13:14:16.959Z,7.07
2019-05-02T13:16:38.117Z,5.23
2019-05-02T13:19:06.947Z,5.47
2019-05-02T13:21:43.097Z,5.70
2019-05-02T13:24:16.198Z,6.60
2019-05-02T13:26:42.991Z,5.67
2019-05-02T13:29:11.851Z,6.13
2019-05-02T13:31:45.012Z,6.90
2019-05-02T13:34:22.074Z,8.83
2019-05-02T13:36:52.146Z,7.13
2019-05-02T13:39:22.730Z,5.30
2019-05-02T13:41:52.202Z,6.30
2019-05-02T13:44:23.121Z,7.60
2019-05-02T13:46:53.567Z,7.00
2019-05-02T13:49:22.503Z,6.27
2019-05-02T13:51:52.101Z,6.70
2019-05-02T13:54:22.088Z,7.40
2019-05-02T13:56:52.697Z,7.10
2019-05-02T13:59:22.335Z,6.33
2019-05-02T14:01:52.707Z,6.87
2019-05-02T14:04:23.300Z,6.40
2019-05-02T14:06:52.976Z,6.23
2019-05-02T14:09:32.490Z,5.70
2019-05-02T14:12:08.628Z,6.70
2019-05-02T14:14:37.335Z,6.93
2019-05-02T14:17:06.179Z,6.00
2019-05-02T14:19:34.828Z,6.20
2019-05-02T14:22:04.433Z,5.70
2019-05-02T14:24:33.093Z,5.70
2019-05-02T14:27:02.694Z,6.03
2019-05-02T14:29:32.978Z,7.30
2019-05-02T14:32:02.731Z,5.53
2019-05-02T14:34:42.623Z,6.77
2019-05-02T14:37:11.879Z,5.50
2019-05-02T14:39:41.666Z,5.70
2019-05-02T14:42:15.289Z,5.73
2019-05-02T14:45:04.136Z,6.07
2019-05-02T14:47:18.182Z,5.90
2019-05-02T14:49:42.946Z,6.20
2019-05-02T14:52:12.632Z,5.97
2019-05-02T14:54:43.871Z,6.40
2019-05-02T14:57:17.095Z,6.47
2019-05-02T14:59:43.724Z,6.10
2019-05-02T15:02:14.117Z,6.87
2019-05-02T15:04:44.358Z,8.43
2019-05-02T15:07:13.166Z,6.70
2019-05-02T15:09:41.899Z,6.00
2019-05-02T15:12:15.854Z,5.93
2019-05-02T15:14:43.133Z,5.80
2019-05-02T15:17:12.121Z,5.60
2019-05-02T15:19:42.724Z,5.57
2019-05-02T15:22:12.415Z,5.33
2019-05-02T15:24:42.395Z,5.70
2019-05-02T15:27:17.030Z,5.77
2019-05-02T15:29:42.087Z,5.00
2019-05-02T15:32:18.428Z,4.87
2019-05-02T15:35:05.116Z,5.37
2019-05-02T15:37:35.865Z,5.60
2019-05-02T15:42:37.326Z,6.50
2019-05-02T15:45:07.219Z,5.63
2019-05-02T15:47:37.179Z,5.63
2019-05-02T15:50:07.206Z,6.17
2019-05-02T15:52:37.473Z,7.57
2019-05-02T15:55:07.468Z,6.07
2019-05-02T15:57:43.083Z,5.97
2019-05-02T16:00:09.995Z,5.57
2019-05-02T16:02:38.645Z,6.30
2019-05-02T16:05:08.695Z,6.87
2019-05-02T16:07:38.005Z,5.80
2019-05-02T16:10:10.614Z,6.20
2019-05-02T16:12:41.800Z,8.27
2019-05-02T16:15:18.106Z,6.40
2019-05-02T16:17:42.310Z,6.57
2019-05-02T16:20:13.650Z,6.50
2019-05-02T16:22:46.223Z,6.93
2019-05-02T16:25:13.024Z,7.23
2019-05-02T16:27:45.721Z,7.30
2019-05-02T16:30:17.494Z,6.53
2019-05-02T16:32:52.256Z,6.93
2019-05-02T16:35:22.674Z,6.40
2019-05-02T16:37:55.687Z,6.40
2019-05-02T16:40:29.601Z,7.27
2019-05-02T16:42:52.584Z,6.17
2019-05-02T16:45:22.250Z,9.50
2019-05-02T16:47:58.545Z,6.53
2019-05-02T16:50:22.889Z,5.90
2019-05-02T16:52:53.137Z,7.80
2019-05-02T16:55:26.361Z,8.93
2019-05-02T16:57:56.575Z,7.27
2019-05-02T17:00:24.809Z,7.97
2019-05-02T17:02:53.422Z,8.13
2019-05-02T17:05:22.221Z,8.47
2019-05-02T17:08:02.242Z,8.43
2019-05-02T17:10:35.031Z,7.63
2019-05-02T17:13:03.069Z,8.30
2019-05-02T17:15:36.466Z,8.83
2019-05-02T17:18:12.600Z,6.90
2019-05-02T17:20:36.833Z,8.73
2019-05-02T17:23:07.488Z,7.70
2019-05-02T17:25:35.841Z,7.87
2019-05-02T17:28:08.459Z,9.03
2019-05-02T17:30:39.161Z,10.00
2019-05-02T17:33:07.070Z,7.93
2019-05-02T17:35:36.135Z,8.13
2019-05-02T17:38:05.412Z,7.37
2019-05-02T17:40:34.468Z,8.73
2019-05-02T17:43:06.896Z,7.60
2019-05-02T17:45:38.602Z,8.10
2019-05-02T17:48:09.896Z,7.40
2019-05-02T17:50:38.963Z,7.67
2019-05-02T17:53:08.824Z,7.97
2019-05-02T17:55:40.365Z,7.40
2019-05-02T17:58:16.383Z,8.07
2019-05-02T18:00:47.375Z,8.07
2019-05-02T18:03:17.881Z,7.47
2019-05-02T18:05:46.606Z,7.72
2019-05-02T18:08:17.753Z,7.20
2019-05-02T18:10:50.597Z,7.33
2019-05-02T18:13:17.390Z,8.30
2019-05-02T18:15:49.189Z,7.67
2019-05-02T18:18:18.632Z,8.03
2019-05-02T18:20:47.643Z,8.07
2019-05-02T18:23:18.683Z,8.30
2019-05-02T18:25:47.743Z,8.20
2019-05-02T18:28:22.323Z,9.63
2019-05-02T18:30:46.927Z,9.00
2019-05-02T18:33:17.200Z,8.53
2019-05-02T18:35:47.017Z,8.50
2019-05-02T18:38:20.937Z,8.63
2019-05-02T18:40:46.549Z,9.33
2019-05-02T18:43:15.305Z,8.93
2019-05-02T18:45:44.455Z,11.47
2019-05-02T18:48:13.417Z,11.90
2019-05-02T18:50:47.614Z,12.70
2019-05-02T18:53:18.479Z,13.47
2019-05-02T18:55:46.035Z,12.30
2019-05-02T18:58:14.984Z,11.80
2019-05-02T19:00:45.212Z,10.13
2019-05-02T19:03:17.177Z,10.30
2019-05-02T19:05:46.678Z,10.10
2019-05-02T19:08:28.199Z,10.20
2019-05-02T19:11:02.478Z,11.13
2019-05-02T19:13:17.230Z,10.67
2019-05-02T19:15:49.145Z,10.20
2019-05-02T19:18:19.589Z,10.73
2019-05-02T19:20:57.493Z,12.73
2019-05-02T19:23:27.247Z,11.63
2019-05-02T19:25:55.990Z,11.77
2019-05-02T19:28:42.880Z,10.50
2019-05-02T19:31:11.690Z,10.40
2019-05-02T19:33:42.708Z,10.07
2019-05-02T19:36:10.812Z,10.17
2019-05-02T19:38:39.440Z,10.10
2019-05-02T19:41:09.339Z,10.10
2019-05-02T19:43:40.500Z,10.37
2019-05-02T19:46:11.994Z,10.60
2019-05-02T19:48:42.905Z,10.37
2019-05-02T19:51:18.727Z,11.17
2019-05-02T19:53:42.619Z,12.03
2019-05-02T19:56:12.827Z,11.43
2019-05-02T19:58:46.654Z,15.23
2019-05-02T20:01:17.488Z,17.47
2019-05-02T20:03:45.412Z,18.37
2019-05-02T20:06:15.853Z,18.10
2019-05-02T20:08:44.535Z,18.87
2019-05-02T20:11:14.183Z,18.13
2019-05-02T20:13:43.227Z,17.23
2019-05-02T20:16:23.478Z,16.40
2019-05-02T20:18:52.647Z,16.70
2019-05-02T20:21:27.972Z,17.37
2019-05-02T20:23:57.644Z,18.83
2019-05-02T20:26:26.297Z,20.37
2019-05-02T20:28:57.984Z,20.33
2019-05-02T20:31:26.784Z,18.30
2019-05-02T20:33:55.845Z,18.60
2019-05-02T20:36:24.831Z,16.20
2019-05-02T20:38:54.326Z,12.67
2019-05-02T20:41:23.378Z,11.77
2019-05-02T20:43:52.032Z,11.43
2019-05-02T20:46:21.839Z,13.37
2019-05-02T20:48:52.591Z,12.43
2019-05-02T20:51:22.786Z,12.43
2019-05-02T20:53:52.600Z,11.10
2019-05-02T20:56:23.039Z,10.83
2019-05-02T20:58:52.646Z,11.23
2019-05-02T21:01:23.378Z,10.40
2019-05-02T21:03:52.356Z,10.20
2019-05-02T21:06:37.025Z,9.67
2019-05-02T21:09:02.384Z,9.80
2019-05-02T21:11:32.428Z,9.20
2019-05-02T21:14:01.790Z,10.60
2019-05-02T21:16:34.831Z,11.87
2019-05-02T21:19:03.630Z,11.40
2019-05-02T21:21:33.906Z,9.67
2019-05-02T21:24:03.900Z,9.67
2019-05-02T21:26:33.403Z,8.63
2019-05-02T21:29:03.041Z,8.93
2019-05-02T21:31:32.036Z,8.67
2019-05-02T21:34:02.548Z,9.33
2019-05-02T21:36:32.001Z,8.47
2019-05-02T21:39:02.790Z,8.43
2019-05-02T21:41:33.022Z,8.63
2019-05-02T21:44:02.553Z,8.50
2019-05-02T21:46:32.029Z,8.80
2019-05-02T21:49:01.117Z,8.33
2019-05-02T21:51:35.402Z,8.60
2019-05-02T21:54:12.208Z,8.30
2019-05-02T21:56:49.138Z,9.03
2019-05-02T21:59:19.623Z,8.53
2019-05-02T22:01:53.630Z,8.97
2019-05-02T22:04:22.946Z,8.50
2019-05-02T22:06:52.704Z,9.70
2019-05-02T22:09:23.051Z,9.53
2019-05-02T22:11:52.677Z,9.43
2019-05-02T22:14:22.540Z,9.20
2019-05-02T22:16:53.161Z,9.60
2019-05-02T22:19:23.284Z,9.00
2019-05-02T22:21:52.599Z,9.67
2019-05-02T22:24:21.529Z,9.27
2019-05-02T22:26:50.226Z,8.63
2019-05-02T22:29:18.863Z,9.37
2019-05-02T22:31:47.935Z,10.03
2019-05-02T22:34:17.545Z,8.47
2019-05-02T22:36:47.101Z,9.97
2019-05-02T22:39:19.000Z,9.10
2019-05-02T22:41:48.666Z,9.27
2019-05-02T22:44:18.291Z,8.47
2019-05-02T22:46:47.283Z,7.53
2019-05-02T22:49:16.951Z,8.03
2019-05-02T22:51:46.555Z,8.40
2019-05-02T22:54:26.963Z,8.00
2019-05-02T22:56:46.761Z,7.90
2019-05-02T22:59:15.399Z,8.30
2019-05-02T23:01:44.371Z,8.03
2019-05-02T23:04:13.007Z,8.77
2019-05-02T23:06:44.254Z,8.03
2019-05-02T23:09:13.512Z,8.37
2019-05-02T23:11:42.749Z,9.13
2019-05-02T23:14:11.992Z,9.63
2019-05-02T23:16:42.709Z,8.63
2019-05-02T23:19:12.349Z,8.70
2019-05-02T23:21:42.371Z,8.47
2019-05-02T23:24:14.667Z,9.37
2019-05-02T23:26:51.811Z,9.63
2019-05-02T23:29:22.462Z,8.50
2019-05-02T23:31:51.873Z,8.57
2019-05-02T23:34:23.348Z,8.33
2019-05-02T23:36:52.224Z,8.40
2019-05-02T23:39:21.485Z,10.50
2019-05-02T23:41:52.491Z,9.10
2019-05-02T23:44:22.853Z,7.97
2019-05-02T23:46:52.532Z,7.93
2019-05-02T23:49:22.177Z,8.47
2019-05-02T23:51:51.560Z,8.13
2019-05-02T23:54:22.069Z,8.87
2019-05-02T23:56:51.745Z,8.20
2019-05-02T23:59:22.234Z,8.23
